createdAt,value
2019-01-08T00:00:05.975Z,99.21
2019-01-08T00:01:05.940Z,98.59
2019-01-08T00:02:05.907Z,98.79
2019-01-08T00:03:05.915Z,98.79
2019-01-08T00:04:06.016Z,98.90
2019-01-08T00:05:05.867Z,98.79
2019-01-08T00:06:05.877Z,98.59
2019-01-08T00:07:05.954Z,98.79
2019-01-08T00:08:05.832Z,98.38
2019-01-08T00:09:05.828Z,98.18
2019-01-08T00:10:05.818Z,98.90
2019-01-08T00:11:05.802Z,98.90
2019-01-08T00:12:05.792Z,98.59
2019-01-08T00:13:05.807Z,98.59
2019-01-08T00:14:05.775Z,97.36
2019-01-08T00:15:05.779Z,97.36
2019-01-08T00:16:05.745Z,96.06
2019-01-08T00:17:05.743Z,95.75
2019-01-08T00:18:05.747Z,95.50
2019-01-08T00:19:05.710Z,94.93
2019-01-08T00:20:05.701Z,94.78
2019-01-08T00:21:05.748Z,93.49
2019-01-08T00:22:05.719Z,92.57
2019-01-08T00:23:05.665Z,92.46
2019-01-08T00:24:05.675Z,92.36
2019-01-08T00:25:05.644Z,92.57
2019-01-08T00:26:05.638Z,93.08
2019-01-08T00:27:05.627Z,92.46
2019-01-08T00:28:06.327Z,92.77
2019-01-08T00:29:05.644Z,92.46
2019-01-08T00:30:05.594Z,91.78
2019-01-08T00:31:05.588Z,92.97
2019-01-08T00:32:05.579Z,93.43
2019-01-08T00:33:05.561Z,91.47
2019-01-08T00:34:05.588Z,91.23
2019-01-08T00:35:05.541Z,92.25
2019-01-08T00:36:05.537Z,92.82
2019-01-08T00:37:05.512Z,91.58
2019-01-08T00:38:05.503Z,91.68
2019-01-08T00:39:05.511Z,93.23
2019-01-08T00:40:05.485Z,93.43
2019-01-08T00:41:05.474Z,92.92
2019-01-08T00:42:05.499Z,91.58
2019-01-08T00:43:05.456Z,92.61
2019-01-08T00:44:05.588Z,93.23
2019-01-08T00:45:05.427Z,93.64
2019-01-08T00:46:05.417Z,92.30
2019-01-08T00:47:05.440Z,92.61
2019-01-08T00:48:05.458Z,92.61
2019-01-08T00:49:05.425Z,92.92
2019-01-08T00:50:05.403Z,93.33
2019-01-08T00:51:05.361Z,93.54
2019-01-08T00:52:05.358Z,93.54
2019-01-08T00:53:05.346Z,93.02
2019-01-08T00:54:05.326Z,93.64
2019-01-08T00:55:05.355Z,93.79
2019-01-08T00:56:05.315Z,93.79
2019-01-08T00:57:05.295Z,94.20
2019-01-08T00:58:05.290Z,93.58
2019-01-08T00:59:05.306Z,93.48
2019-01-08T01:00:05.263Z,93.68
2019-01-08T01:01:05.278Z,92.55
2019-01-08T01:02:05.242Z,91.72
2019-01-08T01:03:05.285Z,92.24
2019-01-08T01:04:05.214Z,91.11
2019-01-08T01:05:05.211Z,91.11
2019-01-08T01:06:05.216Z,90.96
2019-01-08T01:07:05.216Z,89.42
2019-01-08T01:08:05.198Z,89.25
2019-01-08T01:09:05.166Z,88.33
2019-01-08T01:10:05.153Z,87.98
2019-01-08T01:11:05.150Z,88.64
2019-01-08T01:12:05.153Z,88.33
2019-01-08T01:13:05.118Z,87.30
2019-01-08T01:14:05.113Z,88.64
2019-01-08T01:15:05.107Z,88.12
2019-01-08T01:16:05.089Z,89.15
2019-01-08T01:17:05.103Z,88.43
2019-01-08T01:18:05.067Z,88.33
2019-01-08T01:19:05.051Z,89.09
2019-01-08T01:20:05.041Z,87.92
2019-01-08T01:21:05.059Z,87.65
2019-01-08T01:22:05.019Z,88.37
2019-01-08T01:23:05.034Z,86.21
2019-01-08T01:24:05.021Z,87.30
2019-01-08T01:25:04.987Z,87.65
2019-01-08T01:26:04.989Z,87.54
2019-01-08T01:27:05.097Z,87.85
2019-01-08T01:28:04.958Z,86.82
2019-01-08T01:29:04.969Z,86.72
2019-01-08T01:30:04.935Z,86.93
2019-01-08T01:31:04.923Z,87.13
2019-01-08T01:32:04.916Z,86.41
2019-01-08T01:33:04.909Z,86.21
2019-01-08T01:34:04.911Z,87.34
2019-01-08T01:35:04.880Z,86.45
2019-01-08T01:36:04.868Z,86.76
2019-01-08T01:37:04.855Z,86.41
2019-01-08T01:38:04.849Z,86.31
2019-01-08T01:39:04.836Z,86.31
2019-01-08T01:40:05.838Z,86.10
2019-01-08T01:41:04.816Z,86.41
2019-01-08T01:42:04.803Z,85.79
2019-01-08T01:43:04.881Z,85.59
2019-01-08T01:44:04.813Z,86.31
2019-01-08T01:45:04.769Z,85.49
2019-01-08T01:46:04.756Z,85.07
2019-01-08T01:47:04.744Z,84.97
2019-01-08T01:48:04.735Z,86.61
2019-01-08T01:49:04.746Z,85.69
2019-01-08T01:50:04.714Z,85.38
2019-01-08T01:51:04.710Z,85.69
2019-01-08T01:52:04.732Z,85.69
2019-01-08T01:53:04.678Z,86.41
2019-01-08T01:54:04.694Z,86.41
2019-01-08T01:55:04.667Z,86.31
2019-01-08T01:56:04.717Z,86.31
2019-01-08T01:57:04.634Z,85.73
2019-01-08T01:58:04.624Z,85.94
2019-01-08T01:59:08.545Z,86.45
2019-01-08T02:00:04.626Z,86.45
2019-01-08T02:01:04.593Z,85.52
2019-01-08T02:02:04.585Z,85.63
2019-01-08T02:03:04.572Z,85.42
2019-01-08T02:04:04.594Z,85.83
2019-01-08T02:05:04.621Z,86.15
2019-01-08T02:06:04.543Z,85.63
2019-01-08T02:07:04.533Z,85.63
2019-01-08T02:08:04.542Z,86.15
2019-01-08T02:09:04.505Z,85.52
2019-01-08T02:10:04.517Z,85.94
2019-01-08T02:11:04.483Z,85.73
2019-01-08T02:12:04.473Z,85.63
2019-01-08T02:13:04.461Z,86.39
2019-01-08T02:14:04.471Z,86.45
2019-01-08T02:15:04.441Z,86.15
2019-01-08T02:16:04.426Z,86.04
2019-01-08T02:17:04.563Z,86.35
2019-01-08T02:18:04.416Z,86.24
2019-01-08T02:19:04.403Z,85.77
2019-01-08T02:20:04.470Z,85.67
2019-01-08T02:21:04.371Z,85.63
2019-01-08T02:22:04.364Z,85.77
2019-01-08T02:23:04.356Z,85.36
2019-01-08T02:24:04.339Z,85.97
2019-01-08T02:25:04.369Z,85.77
2019-01-08T02:26:04.319Z,85.57
2019-01-08T02:27:04.310Z,85.57
2019-01-08T02:28:04.299Z,85.57
2019-01-08T02:29:04.284Z,85.71
2019-01-08T02:30:04.281Z,86.53
2019-01-08T02:31:04.289Z,86.32
2019-01-08T02:32:04.258Z,86.49
2019-01-08T02:33:04.368Z,86.02
2019-01-08T02:34:04.231Z,85.57
2019-01-08T02:35:04.220Z,85.87
2019-01-08T02:36:04.285Z,86.02
2019-01-08T02:37:04.201Z,85.81
2019-01-08T02:38:04.190Z,84.99
2019-01-08T02:39:04.180Z,85.05
2019-01-08T02:40:04.169Z,85.30
2019-01-08T02:41:04.176Z,85.19
2019-01-08T02:42:04.154Z,85.05
2019-01-08T02:43:04.131Z,85.05
2019-01-08T02:44:04.187Z,85.15
2019-01-08T02:45:04.124Z,84.94
2019-01-08T02:46:04.210Z,84.84
2019-01-08T02:47:04.112Z,85.25
2019-01-08T02:48:04.079Z,84.84
2019-01-08T02:49:04.087Z,85.36
2019-01-08T02:50:04.054Z,84.84
2019-01-08T02:51:04.043Z,84.43
2019-01-08T02:52:04.124Z,85.36
2019-01-08T02:53:04.021Z,84.94
2019-01-08T02:54:04.008Z,85.05
2019-01-08T02:55:04.000Z,85.25
2019-01-08T02:56:03.989Z,85.25
2019-01-08T02:57:04.000Z,84.84
2019-01-08T02:58:03.993Z,84.64
2019-01-08T02:59:03.970Z,84.78
2019-01-08T03:00:03.949Z,84.57
2019-01-08T03:01:03.934Z,84.67
2019-01-08T03:02:03.926Z,84.67
2019-01-08T03:03:03.947Z,84.88
2019-01-08T03:04:03.906Z,84.67
2019-01-08T03:05:03.892Z,84.57
2019-01-08T03:06:03.879Z,84.67
2019-01-08T03:07:03.866Z,84.78
2019-01-08T03:08:03.896Z,84.47
2019-01-08T03:09:03.850Z,85.39
2019-01-08T03:10:03.836Z,85.13
2019-01-08T03:11:03.824Z,84.99
2019-01-08T03:12:03.813Z,85.33
2019-01-08T03:13:03.917Z,85.30
2019-01-08T03:14:03.824Z,85.30
2019-01-08T03:15:03.795Z,85.44
2019-01-08T03:16:03.810Z,84.88
2019-01-08T03:17:03.754Z,84.72
2019-01-08T03:18:03.760Z,84.78
2019-01-08T03:19:03.743Z,85.54
2019-01-08T03:20:03.751Z,85.54
2019-01-08T03:21:03.713Z,85.33
2019-01-08T03:22:03.705Z,84.92
2019-01-08T03:23:03.687Z,85.02
2019-01-08T03:24:03.685Z,85.02
2019-01-08T03:25:03.666Z,85.02
2019-01-08T03:26:03.693Z,85.23
2019-01-08T03:27:03.648Z,84.92
2019-01-08T03:28:03.644Z,84.75
2019-01-08T03:29:03.648Z,85.75
2019-01-08T03:30:03.612Z,84.81
2019-01-08T03:31:03.664Z,84.72
2019-01-08T03:32:03.609Z,85.13
2019-01-08T03:33:10.926Z,85.02
2019-01-08T03:34:03.575Z,85.64
2019-01-08T03:35:03.554Z,85.33
2019-01-08T03:36:03.546Z,85.33
2019-01-08T03:37:03.557Z,84.92
2019-01-08T03:38:03.524Z,85.54
2019-01-08T03:39:03.517Z,84.96
2019-01-08T03:40:10.576Z,84.92
2019-01-08T03:41:03.489Z,85.06
2019-01-08T03:42:03.509Z,85.27
2019-01-08T03:43:03.472Z,85.33
2019-01-08T03:44:03.494Z,85.17
2019-01-08T03:45:03.450Z,85.23
2019-01-08T03:46:03.432Z,84.96
2019-01-08T03:47:03.425Z,85.54
2019-01-08T03:48:03.418Z,85.58
2019-01-08T03:49:03.409Z,85.47
2019-01-08T03:50:03.412Z,84.96
2019-01-08T03:51:03.380Z,85.37
2019-01-08T03:52:03.370Z,85.44
2019-01-08T03:53:03.451Z,85.17
2019-01-08T03:54:03.340Z,85.13
2019-01-08T03:55:03.359Z,85.02
2019-01-08T03:56:03.326Z,85.17
2019-01-08T03:57:03.321Z,85.44
2019-01-08T03:58:03.298Z,84.96
2019-01-08T03:59:03.293Z,85.27
2019-01-08T04:00:03.275Z,84.96
2019-01-08T04:01:03.298Z,85.33
2019-01-08T04:02:03.258Z,84.86
2019-01-08T04:03:03.253Z,85.54
2019-01-08T04:04:03.237Z,84.81
2019-01-08T04:05:03.252Z,84.81
2019-01-08T04:06:03.210Z,84.92
2019-01-08T04:07:03.203Z,85.23
2019-01-08T04:08:03.188Z,85.33
2019-01-08T04:09:03.193Z,85.23
2019-01-08T04:10:03.190Z,85.33
2019-01-08T04:11:03.152Z,84.41
2019-01-08T04:12:03.158Z,84.41
2019-01-08T04:13:03.141Z,85.54
2019-01-08T04:14:03.123Z,85.54
2019-01-08T04:15:03.138Z,85.44
2019-01-08T04:16:03.096Z,85.33
2019-01-08T04:17:03.086Z,84.72
2019-01-08T04:18:03.083Z,84.61
2019-01-08T04:19:03.065Z,84.88
2019-01-08T04:20:03.092Z,84.88
2019-01-08T04:21:03.055Z,84.88
2019-01-08T04:22:03.036Z,84.78
2019-01-08T04:23:03.026Z,84.92
2019-01-08T04:24:03.012Z,84.67
2019-01-08T04:25:02.996Z,84.99
2019-01-08T04:26:03.019Z,84.88
2019-01-08T04:27:02.995Z,84.88
2019-01-08T04:28:03.061Z,84.88
2019-01-08T04:29:02.955Z,84.99
2019-01-08T04:30:02.962Z,85.19
2019-01-08T04:31:02.934Z,85.39
2019-01-08T04:32:02.925Z,85.09
2019-01-08T04:33:02.915Z,85.44
2019-01-08T04:34:02.904Z,85.54
2019-01-08T04:35:02.916Z,85.54
2019-01-08T04:36:02.878Z,85.23
2019-01-08T04:37:02.878Z,84.72
2019-01-08T04:38:02.885Z,84.92
2019-01-08T04:39:02.851Z,84.78
2019-01-08T04:40:02.846Z,84.78
2019-01-08T04:41:02.849Z,84.67
2019-01-08T04:42:02.835Z,85.09
2019-01-08T04:43:02.804Z,85.50
2019-01-08T04:44:02.791Z,84.78
2019-01-08T04:45:02.779Z,85.30
2019-01-08T04:46:02.809Z,84.88
2019-01-08T04:47:02.780Z,84.51
2019-01-08T04:48:02.773Z,84.92
2019-01-08T04:49:02.838Z,84.78
2019-01-08T04:50:02.727Z,85.09
2019-01-08T04:51:02.714Z,84.99
2019-01-08T04:52:02.790Z,84.61
2019-01-08T04:53:02.764Z,84.16
2019-01-08T04:54:02.682Z,83.95
2019-01-08T04:55:02.723Z,84.20
2019-01-08T04:56:02.660Z,85.13
2019-01-08T04:57:02.658Z,84.67
2019-01-08T04:58:02.643Z,84.72
2019-01-08T04:59:02.651Z,84.92
2019-01-08T05:00:02.613Z,85.23
2019-01-08T05:01:02.611Z,85.54
2019-01-08T05:02:02.597Z,84.72
2019-01-08T05:03:02.606Z,84.81
2019-01-08T05:04:02.592Z,85.13
2019-01-08T05:05:02.559Z,85.54
2019-01-08T05:06:02.551Z,84.92
2019-01-08T05:07:02.534Z,85.23
2019-01-08T05:08:02.663Z,84.92
2019-01-08T05:09:02.514Z,84.51
2019-01-08T05:10:02.504Z,85.30
2019-01-08T05:11:02.546Z,84.92
2019-01-08T05:12:02.483Z,84.81
2019-01-08T05:13:02.471Z,85.02
2019-01-08T05:14:02.495Z,85.13
2019-01-08T05:15:02.455Z,85.23
2019-01-08T05:16:02.433Z,85.33
2019-01-08T05:17:02.426Z,85.13
2019-01-08T05:18:02.415Z,85.64
2019-01-08T05:19:02.419Z,85.13
2019-01-08T05:20:02.393Z,85.33
2019-01-08T05:21:02.380Z,86.05
2019-01-08T05:22:02.371Z,85.64
2019-01-08T05:23:02.355Z,85.54
2019-01-08T05:24:02.536Z,85.85
2019-01-08T05:25:02.355Z,85.85
2019-01-08T05:26:02.347Z,85.75
2019-01-08T05:27:02.342Z,85.75
2019-01-08T05:28:02.297Z,85.75
2019-01-08T05:29:02.310Z,86.05
2019-01-08T05:30:07.834Z,86.68
2019-01-08T05:31:03.288Z,85.85
2019-01-08T05:32:02.329Z,85.75
2019-01-08T05:33:02.243Z,86.36
2019-01-08T05:34:02.234Z,86.36
2019-01-08T05:35:02.218Z,85.85
2019-01-08T05:36:02.233Z,86.26
2019-01-08T05:37:02.203Z,86.47
2019-01-08T05:38:02.196Z,86.88
2019-01-08T05:39:02.268Z,86.26
2019-01-08T05:40:02.181Z,86.88
2019-01-08T05:41:02.158Z,87.08
2019-01-08T05:42:02.170Z,86.36
2019-01-08T05:43:02.147Z,86.78
2019-01-08T05:44:02.127Z,87.19
2019-01-08T05:45:02.263Z,87.50
2019-01-08T05:46:02.106Z,87.50
2019-01-08T05:47:02.101Z,87.19
2019-01-08T05:48:02.096Z,87.40
2019-01-08T05:49:02.099Z,87.50
2019-01-08T05:50:02.061Z,87.81
2019-01-08T05:51:02.048Z,87.92
2019-01-08T05:52:02.058Z,88.02
2019-01-08T05:53:02.026Z,88.32
2019-01-08T05:54:02.015Z,89.36
2019-01-08T05:55:02.024Z,90.74
2019-01-08T05:56:01.993Z,90.84
2019-01-08T05:57:02.004Z,91.56
2019-01-08T05:58:01.971Z,91.50
2019-01-08T05:59:01.956Z,92.33
2019-01-08T06:00:01.970Z,93.37
2019-01-08T06:01:01.935Z,93.57
2019-01-08T06:03:03.051Z,93.98
2019-01-08T06:04:01.980Z,94.71
2019-01-08T06:05:01.887Z,95.06
2019-01-08T06:06:01.881Z,94.96
2019-01-08T06:07:01.895Z,94.65
2019-01-08T06:08:01.884Z,95.48
2019-01-08T06:09:01.849Z,95.57
2019-01-08T06:10:01.835Z,95.73
2019-01-08T06:11:01.848Z,95.62
2019-01-08T06:12:01.816Z,95.42
2019-01-08T06:13:01.807Z,96.24
2019-01-08T06:14:01.836Z,96.55
2019-01-08T06:15:01.805Z,96.45
2019-01-08T06:16:01.784Z,96.45
2019-01-08T06:17:01.762Z,96.45
2019-01-08T06:18:01.747Z,96.34
2019-01-08T06:19:01.752Z,96.86
2019-01-08T06:20:01.730Z,96.66
2019-01-08T06:21:01.745Z,96.91
2019-01-08T06:22:01.709Z,96.29
2019-01-08T06:23:01.706Z,97.01
2019-01-08T06:24:01.682Z,97.11
2019-01-08T06:25:01.789Z,97.53
2019-01-08T06:26:01.713Z,97.11
2019-01-08T06:27:01.683Z,97.63
2019-01-08T06:28:01.671Z,97.01
2019-01-08T06:29:01.635Z,96.91
2019-01-08T06:30:01.621Z,95.98
2019-01-08T06:31:01.631Z,95.77
2019-01-08T06:32:01.593Z,94.94
2019-01-08T06:33:01.590Z,95.56
2019-01-08T06:34:01.583Z,94.69
2019-01-08T06:35:01.565Z,94.59
2019-01-08T06:36:01.560Z,94.48
2019-01-08T06:37:01.607Z,94.38
2019-01-08T06:38:01.543Z,94.69
2019-01-08T06:39:01.519Z,94.38
2019-01-08T06:40:01.510Z,95.62
2019-01-08T06:41:01.638Z,95.73
2019-01-08T06:42:01.492Z,95.73
2019-01-08T06:43:01.513Z,95.10
2019-01-08T06:44:01.503Z,95.52
2019-01-08T06:45:01.481Z,95.52
2019-01-08T06:46:01.446Z,95.42
2019-01-08T06:47:01.462Z,95.42
2019-01-08T06:48:01.434Z,95.94
2019-01-08T06:49:01.418Z,95.94
2019-01-08T06:50:01.401Z,96.97
2019-01-08T06:51:01.416Z,96.45
2019-01-08T06:52:01.402Z,96.86
2019-01-08T06:53:01.368Z,97.17
2019-01-08T06:54:01.361Z,96.66
2019-01-08T06:55:01.353Z,96.86
2019-01-08T06:56:01.340Z,97.94
2019-01-08T06:57:01.400Z,97.59
2019-01-08T06:58:01.311Z,97.59
2019-01-08T06:59:01.309Z,96.29
2019-01-08T07:00:01.373Z,96.80
2019-01-08T07:01:01.300Z,96.49
2019-01-08T07:02:01.296Z,97.01
2019-01-08T07:03:01.259Z,97.01
2019-01-08T07:04:01.247Z,97.53
2019-01-08T07:05:01.254Z,97.99
2019-01-08T07:06:01.227Z,98.35
2019-01-08T07:07:01.240Z,98.15
2019-01-08T07:08:01.227Z,98.05
2019-01-08T07:09:01.217Z,98.82
2019-01-08T07:10:01.193Z,98.25
2019-01-08T07:11:01.182Z,98.92
2019-01-08T07:12:01.167Z,98.82
2019-01-08T07:13:01.225Z,98.61
2019-01-08T07:14:01.147Z,98.71
2019-01-08T07:15:01.151Z,99.02
2019-01-08T07:16:01.121Z,99.02
2019-01-08T07:17:01.113Z,98.77
2019-01-08T07:18:01.099Z,98.97
2019-01-08T07:19:01.106Z,98.97
2019-01-08T07:20:01.084Z,98.82
2019-01-08T07:21:01.190Z,99.13
2019-01-08T07:22:01.056Z,98.66
2019-01-08T07:23:01.071Z,99.39
2019-01-08T07:24:01.076Z,99.29
2019-01-08T07:25:01.073Z,98.97
2019-01-08T07:26:01.013Z,98.87
2019-01-08T07:27:00.997Z,98.77
2019-01-08T07:28:00.994Z,99.08
2019-01-08T07:29:00.988Z,98.66
2019-01-08T07:30:00.974Z,98.05
2019-01-08T07:31:00.991Z,98.05
2019-01-08T07:32:00.948Z,97.63
2019-01-08T07:33:00.934Z,98.15
2019-01-08T07:34:00.922Z,97.11
2019-01-08T07:35:00.912Z,97.53
2019-01-08T07:36:00.927Z,97.22
2019-01-08T07:37:00.996Z,97.42
2019-01-08T07:38:00.875Z,97.63
2019-01-08T07:39:00.865Z,97.22
2019-01-08T07:40:00.896Z,97.63
2019-01-08T07:41:00.851Z,97.53
2019-01-08T07:42:00.872Z,97.84
2019-01-08T07:43:00.872Z,96.91
2019-01-08T07:44:00.812Z,96.45
2019-01-08T07:45:00.807Z,97.01
2019-01-08T07:46:00.825Z,96.91
2019-01-08T07:47:00.817Z,96.86
2019-01-08T07:48:00.771Z,96.76
2019-01-08T07:49:00.762Z,96.55
2019-01-08T07:50:00.764Z,96.14
2019-01-08T07:51:00.746Z,96.34
2019-01-08T07:52:00.761Z,96.76
2019-01-08T07:53:00.723Z,96.34
2019-01-08T07:54:00.710Z,95.48
2019-01-08T07:55:00.773Z,96.14
2019-01-08T07:56:00.703Z,95.68
2019-01-08T07:57:00.675Z,95.52
2019-01-08T07:58:00.723Z,96.14
2019-01-08T07:59:00.808Z,95.83
2019-01-08T08:00:00.716Z,96.34
2019-01-08T08:01:00.766Z,95.10
2019-01-08T08:02:00.645Z,95.62
2019-01-08T08:03:00.615Z,95.62
2019-01-08T08:04:01.450Z,95.83
2019-01-08T08:05:00.590Z,96.14
2019-01-08T08:06:00.780Z,95.31
2019-01-08T08:07:00.604Z,95.62
2019-01-08T08:08:00.555Z,95.52
2019-01-08T08:09:00.563Z,95.52
2019-01-08T08:10:00.570Z,94.48
2019-01-08T08:11:00.532Z,94.48
2019-01-08T08:12:00.593Z,94.18
2019-01-08T08:13:00.861Z,93.87
2019-01-08T08:14:00.535Z,93.87
2019-01-08T08:15:00.688Z,93.66
2019-01-08T08:16:00.473Z,94.07
2019-01-08T08:17:00.611Z,93.97
2019-01-08T08:18:00.645Z,93.14
2019-01-08T08:19:01.209Z,93.04
2019-01-08T08:21:01.577Z,92.42
2019-01-08T08:22:00.477Z,93.04
2019-01-08T08:23:00.442Z,92.42
2019-01-08T08:24:00.392Z,92.58
2019-01-08T08:25:00.379Z,91.90
2019-01-08T08:26:00.408Z,92.42
2019-01-08T08:27:00.364Z,92.00
2019-01-08T08:28:00.360Z,91.75
2019-01-08T08:29:00.362Z,92.07
2019-01-08T08:30:00.327Z,92.07
2019-01-08T08:31:00.308Z,91.75
2019-01-08T08:32:00.299Z,91.24
2019-01-08T08:33:00.437Z,91.03
2019-01-08T08:34:00.319Z,90.72
2019-01-08T08:35:07.900Z,91.30
2019-01-08T08:36:01.253Z,91.65
2019-01-08T08:37:00.243Z,91.24
2019-01-08T08:38:00.230Z,91.75
2019-01-08T08:39:00.245Z,90.83
2019-01-08T08:40:00.290Z,91.20
2019-01-08T08:41:00.207Z,91.71
2019-01-08T08:42:00.188Z,90.72
2019-01-08T08:43:00.175Z,91.82
2019-01-08T08:44:00.172Z,91.13
2019-01-08T08:45:00.308Z,91.34
2019-01-08T08:46:00.143Z,92.07
2019-01-08T08:47:00.133Z,90.93
2019-01-08T08:48:00.122Z,90.93
2019-01-08T08:49:00.109Z,91.65
2019-01-08T08:50:00.186Z,90.83
2019-01-08T08:51:00.128Z,90.72
2019-01-08T08:52:00.085Z,91.03
2019-01-08T08:53:00.074Z,90.83
2019-01-08T08:54:00.058Z,90.62
2019-01-08T08:55:00.282Z,89.75
2019-01-08T08:56:00.042Z,91.24
2019-01-08T08:57:00.107Z,91.09
2019-01-08T08:58:00.014Z,90.16
2019-01-08T08:59:00.011Z,90.52
2019-01-08T09:00:00.046Z,91.34
2019-01-08T09:01:06.833Z,91.24
2019-01-08T09:02:00.971Z,90.20
2019-01-08T09:02:59.964Z,89.69
2019-01-08T09:03:59.967Z,89.54
2019-01-08T09:04:59.954Z,89.86
2019-01-08T09:05:59.931Z,89.44
2019-01-08T09:06:59.942Z,89.89
2019-01-08T09:07:59.900Z,89.79
2019-01-08T09:08:59.894Z,90.20
2019-01-08T09:09:59.891Z,88.76
2019-01-08T09:10:59.877Z,89.65
2019-01-08T09:11:59.888Z,90.06
2019-01-08T09:13:00.465Z,90.16
2019-01-08T09:13:59.875Z,89.65
2019-01-08T09:14:59.836Z,89.34
2019-01-08T09:15:59.947Z,89.34
2019-01-08T09:16:59.808Z,89.65
2019-01-08T09:17:59.797Z,88.71
2019-01-08T09:18:59.807Z,88.82
2019-01-08T09:19:59.796Z,89.03
2019-01-08T09:20:59.759Z,88.71
2019-01-08T09:21:59.763Z,89.65
2019-01-08T09:22:59.781Z,89.65
2019-01-08T09:23:59.732Z,89.34
2019-01-08T09:24:59.736Z,89.03
2019-01-08T09:25:59.704Z,88.51
2019-01-08T09:26:59.700Z,88.92
2019-01-08T09:27:59.688Z,88.82
2019-01-08T09:28:59.844Z,88.61
2019-01-08T09:29:59.664Z,88.71
2019-01-08T09:30:59.663Z,89.40
2019-01-08T09:31:59.645Z,88.82
2019-01-08T09:32:59.634Z,89.13
2019-01-08T09:33:59.746Z,89.34
2019-01-08T09:34:59.631Z,89.34
2019-01-08T09:35:59.598Z,89.40
2019-01-08T09:36:59.711Z,89.86
2019-01-08T09:37:59.568Z,89.95
2019-01-08T09:38:59.588Z,89.95
2019-01-08T09:39:59.546Z,89.95
2019-01-08T09:41:06.606Z,89.75
2019-01-08T09:41:59.531Z,90.58
2019-01-08T09:42:59.515Z,90.58
2019-01-08T09:43:59.538Z,89.54
2019-01-08T09:44:59.496Z,89.44
2019-01-08T09:45:59.484Z,89.40
2019-01-08T09:46:59.470Z,89.23
2019-01-08T09:47:59.476Z,89.50
2019-01-08T09:48:59.473Z,89.50
2019-01-08T09:49:59.435Z,89.61
2019-01-08T09:50:59.437Z,89.61
2019-01-08T09:51:59.422Z,88.78
2019-01-08T09:52:59.485Z,89.40
2019-01-08T09:53:59.435Z,89.29
2019-01-08T09:54:59.387Z,89.29
2019-01-08T09:55:59.375Z,89.81
2019-01-08T09:56:59.356Z,90.08
2019-01-08T09:57:59.358Z,90.02
2019-01-08T09:58:59.365Z,90.49
2019-01-08T09:59:59.329Z,90.43
2019-01-08T10:00:59.339Z,90.64
2019-01-08T10:01:59.298Z,91.26
2019-01-08T10:02:59.297Z,90.95
2019-01-08T10:03:59.287Z,91.05
2019-01-08T10:04:59.289Z,91.56
2019-01-08T10:05:59.292Z,91.56
2019-01-08T10:06:59.249Z,92.19
2019-01-08T10:07:59.242Z,91.67
2019-01-08T10:08:59.258Z,91.67
2019-01-08T10:09:59.214Z,91.98
2019-01-08T10:10:59.208Z,91.50
2019-01-08T10:11:59.224Z,91.77
2019-01-08T10:12:59.182Z,91.67
2019-01-08T10:13:59.174Z,91.98
2019-01-08T10:14:59.186Z,91.98
2019-01-08T10:15:59.154Z,92.08
2019-01-08T10:16:59.179Z,91.98
2019-01-08T10:17:59.132Z,92.08
2019-01-08T10:18:59.116Z,91.98
2019-01-08T10:19:59.102Z,91.98
2019-01-08T10:20:59.093Z,91.98
2019-01-08T10:21:59.092Z,91.88
2019-01-08T10:22:59.106Z,90.84
2019-01-08T10:23:59.119Z,91.88
2019-01-08T10:24:59.127Z,91.67
2019-01-08T10:25:59.043Z,91.26
2019-01-08T10:26:59.032Z,90.43
2019-01-08T10:27:59.029Z,90.02
2019-01-08T10:28:59.001Z,89.67
2019-01-08T10:29:59.055Z,89.67
2019-01-08T10:30:58.987Z,89.36
2019-01-08T10:31:59.003Z,89.67
2019-01-08T10:32:58.991Z,89.56
2019-01-08T10:33:58.954Z,89.36
2019-01-08T10:34:59.571Z,89.46
2019-01-08T10:35:58.969Z,89.98
2019-01-08T10:36:58.943Z,89.36
2019-01-08T10:37:58.899Z,88.84
2019-01-08T10:38:58.893Z,89.46
2019-01-08T10:39:58.880Z,88.90
2019-01-08T10:40:58.869Z,88.39
2019-01-08T10:41:58.859Z,88.18
2019-01-08T10:42:58.882Z,87.87
2019-01-08T10:43:58.835Z,88.29
2019-01-08T10:44:58.825Z,87.66
2019-01-08T10:45:58.840Z,87.98
2019-01-08T10:46:58.803Z,87.77
2019-01-08T10:47:58.799Z,88.29
2019-01-08T10:48:59.508Z,88.29
2019-01-08T10:49:58.776Z,88.80
2019-01-08T10:50:58.783Z,88.90
2019-01-08T10:51:58.747Z,87.46
2019-01-08T10:52:58.770Z,87.98
2019-01-08T10:53:58.729Z,87.35
2019-01-08T10:54:58.716Z,88.29
2019-01-08T10:55:58.731Z,88.39
2019-01-08T10:56:58.704Z,88.29
2019-01-08T10:57:58.694Z,88.29
2019-01-08T10:58:58.671Z,87.35
2019-01-08T10:59:58.655Z,88.39
2019-01-08T11:00:58.648Z,88.80
2019-01-08T11:01:58.659Z,87.46
2019-01-08T11:02:58.669Z,88.80
2019-01-08T11:03:58.627Z,89.83
2019-01-08T11:04:58.744Z,89.32
2019-01-08T11:05:58.590Z,89.32
2019-01-08T11:06:58.615Z,89.15
2019-01-08T11:07:58.573Z,88.95
2019-01-08T11:08:58.559Z,88.64
2019-01-08T11:09:58.550Z,88.64
2019-01-08T11:10:58.539Z,89.22
2019-01-08T11:11:58.527Z,88.29
2019-01-08T11:12:58.537Z,89.52
2019-01-08T11:13:58.501Z,89.52
2019-01-08T11:14:58.496Z,89.32
2019-01-08T11:15:58.482Z,88.80
2019-01-08T11:16:58.480Z,89.77
2019-01-08T11:17:58.500Z,89.62
2019-01-08T11:18:58.469Z,89.73
2019-01-08T11:19:58.450Z,89.36
2019-01-08T11:20:58.459Z,88.59
2019-01-08T11:21:58.421Z,87.87
2019-01-08T11:22:58.447Z,88.39
2019-01-08T11:23:58.397Z,88.29
2019-01-08T11:24:58.385Z,88.49
2019-01-08T11:25:58.377Z,88.39
2019-01-08T11:26:58.385Z,88.08
2019-01-08T11:27:58.348Z,88.29
2019-01-08T11:28:58.420Z,87.98
2019-01-08T11:29:58.331Z,87.35
2019-01-08T11:30:58.314Z,87.56
2019-01-08T11:31:58.361Z,87.77
2019-01-08T11:32:58.300Z,86.22
2019-01-08T11:33:58.307Z,86.84
2019-01-08T11:34:58.297Z,85.71
2019-01-08T11:35:58.267Z,86.43
2019-01-08T11:36:58.268Z,87.46
2019-01-08T11:37:58.241Z,87.87
2019-01-08T11:38:58.240Z,87.26
2019-01-08T11:39:58.218Z,87.87
2019-01-08T11:40:58.237Z,88.18
2019-01-08T11:41:58.223Z,88.49
2019-01-08T11:42:58.183Z,89.32
2019-01-08T11:43:58.173Z,89.83
2019-01-08T11:44:58.223Z,90.14
2019-01-08T11:45:58.170Z,91.07
2019-01-08T11:46:58.139Z,89.83
2019-01-08T11:48:03.807Z,89.83
2019-01-08T11:48:59.133Z,89.87
2019-01-08T11:49:58.131Z,90.28
2019-01-08T11:50:58.132Z,90.49
2019-01-08T11:51:58.082Z,90.59
2019-01-08T11:52:58.082Z,90.49
2019-01-08T11:53:58.071Z,91.42
2019-01-08T11:54:58.062Z,91.11
2019-01-08T11:55:59.070Z,91.22
2019-01-08T11:56:58.057Z,91.01
2019-01-08T11:57:58.052Z,90.95
2019-01-08T11:58:58.015Z,91.36
2019-01-08T11:59:58.028Z,90.64
2019-01-08T12:00:58.133Z,91.73
2019-01-08T12:01:57.976Z,90.95
2019-01-08T12:02:57.985Z,91.77
2019-01-08T12:03:57.959Z,92.33
2019-01-08T12:04:57.943Z,92.85
2019-01-08T12:05:57.931Z,93.37
2019-01-08T12:06:57.921Z,93.37
2019-01-08T12:07:57.908Z,94.40
2019-01-08T12:08:58.074Z,94.96
2019-01-08T12:09:57.904Z,94.44
2019-01-08T12:10:57.875Z,93.93
2019-01-08T12:11:57.872Z,94.07
2019-01-08T12:12:57.854Z,93.76
2019-01-08T12:13:57.858Z,94.79
2019-01-08T12:14:57.835Z,95.00
2019-01-08T12:15:57.866Z,94.79
2019-01-08T12:16:57.807Z,94.69
2019-01-08T12:17:57.797Z,95.42
2019-01-08T12:18:57.789Z,94.79
2019-01-08T12:19:57.778Z,94.69
2019-01-08T12:20:57.768Z,94.48
2019-01-08T12:21:57.945Z,95.42
2019-01-08T12:22:57.786Z,95.48
2019-01-08T12:23:57.747Z,95.31
2019-01-08T12:24:57.848Z,95.27
2019-01-08T12:25:57.723Z,95.48
2019-01-08T12:26:57.699Z,95.95
2019-01-08T12:27:57.719Z,95.43
2019-01-08T12:28:57.678Z,95.22
2019-01-08T12:29:57.667Z,95.43
2019-01-08T12:30:57.661Z,94.40
2019-01-08T12:32:05.693Z,94.56
2019-01-08T12:32:58.763Z,94.87
2019-01-08T12:33:57.694Z,94.67
2019-01-08T12:34:57.617Z,94.62
2019-01-08T12:35:57.616Z,94.62
2019-01-08T12:36:57.605Z,94.72
2019-01-08T12:37:57.609Z,92.55
2019-01-08T12:38:57.571Z,92.66
2019-01-08T12:39:57.559Z,93.90
2019-01-08T12:40:57.586Z,92.35
2019-01-08T12:41:57.533Z,91.94
2019-01-08T12:42:57.550Z,92.76
2019-01-08T12:43:57.521Z,92.46
2019-01-08T12:44:57.505Z,92.72
2019-01-08T12:45:57.534Z,92.66
2019-01-08T12:46:57.501Z,92.55
2019-01-08T12:47:57.595Z,93.24
2019-01-08T12:48:57.465Z,90.91
2019-01-08T12:49:57.519Z,91.22
2019-01-08T12:50:57.505Z,90.49
2019-01-08T12:51:57.428Z,91.22
2019-01-08T12:52:57.416Z,91.52
2019-01-08T12:53:57.409Z,92.25